sensor_id;sensor_type;location;lat;lon;timestamp;P1;durP1;ratioP1;P2;durP2;ratioP2
4222;SDS011;2125;51.436;14.138;2022-08-11T00:01:21;13.80;;;7.97;;
4222;SDS011;2125;51.436;14.138;2022-08-11T00:03:50;12.53;;;8.57;;
4222;SDS011;2125;51.436;14.138;2022-08-11T00:06:24;9.10;;;7.73;;
4222;SDS011;2125;51.436;14.138;2022-08-11T00:08:53;10.07;;;7.50;;
4222;SDS011;2125;51.436;14.138;2022-08-11T00:11:21;12.73;;;7.60;;
4222;SDS011;2125;51.436;14.138;2022-08-11T00:13:59;16.43;;;7.13;;
4222;SDS011;2125;51.436;14.138;2022-08-11T00:16:27;12.23;;;8.30;;
4222;SDS011;2125;51.436;14.138;2022-08-11T00:18:55;11.47;;;8.30;;
4222;SDS011;2125;51.436;14.138;2022-08-11T00:21:24;8.80;;;7.50;;
4222;SDS011;2125;51.436;14.138;2022-08-11T00:23:53;11.87;;;8.23;;
4222;SDS011;2125;51.436;14.138;2022-08-11T00:26:21;9.57;;;7.83;;
4222;SDS011;2125;51.436;14.138;2022-08-11T00:28:51;11.73;;;7.97;;
4222;SDS011;2125;51.436;14.138;2022-08-11T00:31:20;13.03;;;8.37;;
4222;SDS011;2125;51.436;14.138;2022-08-11T00:33:51;17.70;;;8.30;;
4222;SDS011;2125;51.436;14.138;2022-08-11T00:36:19;16.53;;;8.80;;
4222;SDS011;2125;51.436;14.138;2022-08-11T00:38:51;13.17;;;8.83;;
4222;SDS011;2125;51.436;14.138;2022-08-11T00:41:28;10.97;;;8.20;;
4222;SDS011;2125;51.436;14.138;2022-08-11T00:47:09;10.47;;;8.00;;
4222;SDS011;2125;51.436;14.138;2022-08-11T00:49:45;10.30;;;8.37;;
4222;SDS011;2125;51.436;14.138;2022-08-11T00:52:27;10.13;;;8.30;;
4222;SDS011;2125;51.436;14.138;2022-08-11T00:55:03;11.03;;;8.10;;
4222;SDS011;2125;51.436;14.138;2022-08-11T00:58:06;11.13;;;8.73;;
4222;SDS011;2125;51.436;14.138;2022-08-11T01:03:46;12.20;;;8.83;;
4222;SDS011;2125;51.436;14.138;2022-08-11T01:06:43;10.97;;;7.93;;
4222;SDS011;2125;51.436;14.138;2022-08-11T01:09:19;11.83;;;7.87;;
4222;SDS011;2125;51.436;14.138;2022-08-11T01:12:23;12.10;;;8.73;;
4222;SDS011;2125;51.436;14.138;2022-08-11T01:15:31;13.13;;;9.40;;
4222;SDS011;2125;51.436;14.138;2022-08-11T01:18:43;10.30;;;8.57;;
4222;SDS011;2125;51.436;14.138;2022-08-11T01:24:58;10.50;;;8.80;;
4222;SDS011;2125;51.436;14.138;2022-08-11T01:31:22;10.60;;;8.80;;
4222;SDS011;2125;51.436;14.138;2022-08-11T01:34:14;9.10;;;8.00;;
4222;SDS011;2125;51.436;14.138;2022-08-11T01:37:04;10.57;;;8.30;;
4222;SDS011;2125;51.436;14.138;2022-08-11T01:39:54;17.40;;;7.60;;
4222;SDS011;2125;51.436;14.138;2022-08-11T01:42:55;19.63;;;9.30;;
4222;SDS011;2125;51.436;14.138;2022-08-11T01:46:12;9.33;;;8.20;;
4222;SDS011;2125;51.436;14.138;2022-08-11T01:48:43;17.40;;;8.20;;
4222;SDS011;2125;51.436;14.138;2022-08-11T01:51:22;18.20;;;8.70;;
4222;SDS011;2125;51.436;14.138;2022-08-11T01:54:02;15.53;;;8.77;;
4222;SDS011;2125;51.436;14.138;2022-08-11T01:56:34;15.83;;;9.00;;
4222;SDS011;2125;51.436;14.138;2022-08-11T01:59:10;12.47;;;9.00;;
4222;SDS011;2125;51.436;14.138;2022-08-11T02:01:50;12.40;;;8.77;;
4222;SDS011;2125;51.436;14.138;2022-08-11T02:04:35;14.90;;;9.43;;
4222;SDS011;2125;51.436;14.138;2022-08-11T02:07:09;11.70;;;8.50;;
4222;SDS011;2125;51.436;14.138;2022-08-11T02:09:52;11.47;;;8.67;;
4222;SDS011;2125;51.436;14.138;2022-08-11T02:12:49;13.97;;;9.30;;
4222;SDS011;2125;51.436;14.138;2022-08-11T02:15:20;12.10;;;8.60;;
4222;SDS011;2125;51.436;14.138;2022-08-11T02:17:56;13.97;;;8.63;;
4222;SDS011;2125;51.436;14.138;2022-08-11T02:20:31;12.83;;;9.70;;
4222;SDS011;2125;51.436;14.138;2022-08-11T02:23:22;12.67;;;9.30;;
4222;SDS011;2125;51.436;14.138;2022-08-11T02:26:08;11.50;;;9.30;;
4222;SDS011;2125;51.436;14.138;2022-08-11T02:28:41;13.50;;;9.30;;
4222;SDS011;2125;51.436;14.138;2022-08-11T02:31:17;13.27;;;9.30;;
4222;SDS011;2125;51.436;14.138;2022-08-11T02:34:08;16.53;;;8.53;;
4222;SDS011;2125;51.436;14.138;2022-08-11T02:36:48;10.90;;;8.03;;
4222;SDS011;2125;51.436;14.138;2022-08-11T02:39:20;13.23;;;9.60;;
4222;SDS011;2125;51.436;14.138;2022-08-11T02:41:51;11.10;;;8.43;;
4222;SDS011;2125;51.436;14.138;2022-08-11T02:44:43;12.60;;;9.73;;
4222;SDS011;2125;51.436;14.138;2022-08-11T02:47:16;13.83;;;9.90;;
4222;SDS011;2125;51.436;14.138;2022-08-11T02:50:03;13.83;;;9.70;;
4222;SDS011;2125;51.436;14.138;2022-08-11T02:52:40;12.37;;;9.40;;
4222;SDS011;2125;51.436;14.138;2022-08-11T02:55:20;17.13;;;9.77;;
4222;SDS011;2125;51.436;14.138;2022-08-11T02:57:53;16.43;;;8.90;;
4222;SDS011;2125;51.436;14.138;2022-08-11T03:00:27;15.07;;;9.67;;
4222;SDS011;2125;51.436;14.138;2022-08-11T03:03:06;14.17;;;10.03;;
4222;SDS011;2125;51.436;14.138;2022-08-11T03:05:44;11.80;;;9.00;;
4222;SDS011;2125;51.436;14.138;2022-08-11T03:08:22;13.63;;;9.00;;
4222;SDS011;2125;51.436;14.138;2022-08-11T03:10:59;10.77;;;9.20;;
4222;SDS011;2125;51.436;14.138;2022-08-11T03:16:54;14.50;;;9.90;;
4222;SDS011;2125;51.436;14.138;2022-08-11T03:19:27;23.10;;;9.50;;
4222;SDS011;2125;51.436;14.138;2022-08-11T03:22:02;11.90;;;8.73;;
4222;SDS011;2125;51.436;14.138;2022-08-11T03:24:38;15.47;;;8.87;;
4222;SDS011;2125;51.436;14.138;2022-08-11T03:27:27;14.20;;;8.77;;
4222;SDS011;2125;51.436;14.138;2022-08-11T03:30:04;11.60;;;9.83;;
4222;SDS011;2125;51.436;14.138;2022-08-11T03:32:36;11.97;;;9.57;;
4222;SDS011;2125;51.436;14.138;2022-08-11T03:35:36;11.80;;;8.80;;
4222;SDS011;2125;51.436;14.138;2022-08-11T03:38:09;11.27;;;8.80;;
4222;SDS011;2125;51.436;14.138;2022-08-11T03:40:42;14.90;;;9.23;;
4222;SDS011;2125;51.436;14.138;2022-08-11T03:43:46;11.77;;;8.80;;
4222;SDS011;2125;51.436;14.138;2022-08-11T03:46:25;11.70;;;9.10;;
4222;SDS011;2125;51.436;14.138;2022-08-11T03:49:04;14.20;;;9.60;;
4222;SDS011;2125;51.436;14.138;2022-08-11T03:51:44;12.60;;;9.07;;
4222;SDS011;2125;51.436;14.138;2022-08-11T03:54:19;13.70;;;9.70;;
4222;SDS011;2125;51.436;14.138;2022-08-11T04:00:04;12.47;;;8.47;;
4222;SDS011;2125;51.436;14.138;2022-08-11T04:02:52;12.40;;;9.43;;
4222;SDS011;2125;51.436;14.138;2022-08-11T04:08:55;16.20;;;10.27;;
4222;SDS011;2125;51.436;14.138;2022-08-11T04:12:02;13.60;;;10.10;;
4222;SDS011;2125;51.436;14.138;2022-08-11T04:15:07;13.23;;;9.50;;
4222;SDS011;2125;51.436;14.138;2022-08-11T04:21:34;13.60;;;9.90;;
4222;SDS011;2125;51.436;14.138;2022-08-11T04:24:26;12.10;;;9.33;;
4222;SDS011;2125;51.436;14.138;2022-08-11T04:27:19;17.60;;;9.53;;
4222;SDS011;2125;51.436;14.138;2022-08-11T04:30:08;12.10;;;9.30;;
4222;SDS011;2125;51.436;14.138;2022-08-11T04:35:46;15.23;;;9.23;;
4222;SDS011;2125;51.436;14.138;2022-08-11T04:41:50;13.50;;;10.27;;
4222;SDS011;2125;51.436;14.138;2022-08-11T04:48:00;14.70;;;10.07;;
4222;SDS011;2125;51.436;14.138;2022-08-11T04:51:21;20.53;;;9.87;;
4222;SDS011;2125;51.436;14.138;2022-08-11T04:54:30;12.93;;;9.43;;
4222;SDS011;2125;51.436;14.138;2022-08-11T04:57:32;13.43;;;9.40;;
4222;SDS011;2125;51.436;14.138;2022-08-11T05:00:23;14.53;;;10.17;;
4222;SDS011;2125;51.436;14.138;2022-08-11T05:03:19;19.30;;;9.60;;
4222;SDS011;2125;51.436;14.138;2022-08-11T05:06:14;12.10;;;9.30;;
4222;SDS011;2125;51.436;14.138;2022-08-11T05:09:12;16.77;;;9.63;;
4222;SDS011;2125;51.436;14.138;2022-08-11T05:14:51;16.57;;;8.60;;
4222;SDS011;2125;51.436;14.138;2022-08-11T05:17:37;21.67;;;9.23;;
4222;SDS011;2125;51.436;14.138;2022-08-11T05:20:24;20.70;;;10.00;;
4222;SDS011;2125;51.436;14.138;2022-08-11T05:23:10;17.93;;;9.80;;
4222;SDS011;2125;51.436;14.138;2022-08-11T05:25:55;27.60;;;8.80;;
4222;SDS011;2125;51.436;14.138;2022-08-11T05:28:47;27.83;;;8.30;;
4222;SDS011;2125;51.436;14.138;2022-08-11T05:31:36;22.83;;;8.90;;
4222;SDS011;2125;51.436;14.138;2022-08-11T05:34:24;26.10;;;8.97;;
4222;SDS011;2125;51.436;14.138;2022-08-11T05:37:18;37.30;;;9.63;;
4222;SDS011;2125;51.436;14.138;2022-08-11T05:39:49;21.73;;;8.57;;
4222;SDS011;2125;51.436;14.138;2022-08-11T05:42:37;16.30;;;8.70;;
4222;SDS011;2125;51.436;14.138;2022-08-11T05:45:27;23.23;;;8.73;;
4222;SDS011;2125;51.436;14.138;2022-08-11T05:48:11;15.93;;;7.17;;
4222;SDS011;2125;51.436;14.138;2022-08-11T05:50:57;8.80;;;7.50;;
4222;SDS011;2125;51.436;14.138;2022-08-11T05:53:44;8.97;;;7.07;;
4222;SDS011;2125;51.436;14.138;2022-08-11T05:56:32;7.83;;;6.97;;
4222;SDS011;2125;51.436;14.138;2022-08-11T05:59:05;11.23;;;6.60;;
4222;SDS011;2125;51.436;14.138;2022-08-11T06:01:40;15.50;;;7.10;;
4222;SDS011;2125;51.436;14.138;2022-08-11T06:04:11;11.00;;;6.60;;
4222;SDS011;2125;51.436;14.138;2022-08-11T06:06:49;9.63;;;6.60;;
4222;SDS011;2125;51.436;14.138;2022-08-11T06:09:28;7.73;;;6.10;;
4222;SDS011;2125;51.436;14.138;2022-08-11T06:11:59;13.87;;;6.20;;
4222;SDS011;2125;51.436;14.138;2022-08-11T06:14:28;12.77;;;5.97;;
4222;SDS011;2125;51.436;14.138;2022-08-11T06:16:57;8.90;;;6.17;;
4222;SDS011;2125;51.436;14.138;2022-08-11T06:19:30;11.90;;;5.80;;
4222;SDS011;2125;51.436;14.138;2022-08-11T06:21:59;8.33;;;5.40;;
4222;SDS011;2125;51.436;14.138;2022-08-11T06:24:27;5.20;;;4.70;;
4222;SDS011;2125;51.436;14.138;2022-08-11T06:26:56;20.10;;;6.33;;
4222;SDS011;2125;51.436;14.138;2022-08-11T06:29:24;12.37;;;6.27;;
4222;SDS011;2125;51.436;14.138;2022-08-11T06:31:52;15.33;;;6.03;;
4222;SDS011;2125;51.436;14.138;2022-08-11T06:34:27;17.10;;;6.63;;
4222;SDS011;2125;51.436;14.138;2022-08-11T06:37:19;21.33;;;6.57;;
4222;SDS011;2125;51.436;14.138;2022-08-11T06:39:51;15.00;;;6.00;;
4222;SDS011;2125;51.436;14.138;2022-08-11T06:42:46;21.90;;;6.67;;
4222;SDS011;2125;51.436;14.138;2022-08-11T06:45:23;12.00;;;6.10;;
4222;SDS011;2125;51.436;14.138;2022-08-11T06:47:54;23.40;;;5.90;;
4222;SDS011;2125;51.436;14.138;2022-08-11T06:50:26;12.87;;;5.43;;
4222;SDS011;2125;51.436;14.138;2022-08-11T06:53:14;14.73;;;5.30;;
4222;SDS011;2125;51.436;14.138;2022-08-11T06:55:44;15.33;;;5.67;;
4222;SDS011;2125;51.436;14.138;2022-08-11T06:58:31;7.27;;;5.00;;
4222;SDS011;2125;51.436;14.138;2022-08-11T07:01:29;10.13;;;4.97;;
4222;SDS011;2125;51.436;14.138;2022-08-11T07:04:03;10.00;;;4.80;;
4222;SDS011;2125;51.436;14.138;2022-08-11T07:06:36;6.03;;;4.73;;
4222;SDS011;2125;51.436;14.138;2022-08-11T07:09:32;7.00;;;5.03;;
4222;SDS011;2125;51.436;14.138;2022-08-11T07:12:37;10.30;;;5.20;;
4222;SDS011;2125;51.436;14.138;2022-08-11T07:15:25;8.40;;;4.47;;
4222;SDS011;2125;51.436;14.138;2022-08-11T07:18:09;8.47;;;4.03;;
4222;SDS011;2125;51.436;14.138;2022-08-11T07:21:04;10.53;;;4.30;;
4222;SDS011;2125;51.436;14.138;2022-08-11T07:23:54;6.17;;;4.60;;
4222;SDS011;2125;51.436;14.138;2022-08-11T07:26:42;9.27;;;4.10;;
4222;SDS011;2125;51.436;14.138;2022-08-11T07:29:35;8.67;;;4.07;;
4222;SDS011;2125;51.436;14.138;2022-08-11T07:32:10;8.27;;;3.57;;
4222;SDS011;2125;51.436;14.138;2022-08-11T07:34:44;8.97;;;3.83;;
4222;SDS011;2125;51.436;14.138;2022-08-11T07:37:15;6.27;;;4.07;;
4222;SDS011;2125;51.436;14.138;2022-08-11T07:39:45;11.60;;;3.83;;
4222;SDS011;2125;51.436;14.138;2022-08-11T07:42:14;8.13;;;4.00;;
4222;SDS011;2125;51.436;14.138;2022-08-11T07:44:45;7.30;;;3.63;;
4222;SDS011;2125;51.436;14.138;2022-08-11T07:47:30;3.90;;;3.60;;
4222;SDS011;2125;51.436;14.138;2022-08-11T07:50:17;5.43;;;3.77;;
4222;SDS011;2125;51.436;14.138;2022-08-11T07:53:02;6.53;;;3.73;;
4222;SDS011;2125;51.436;14.138;2022-08-11T07:55:31;7.73;;;3.73;;
4222;SDS011;2125;51.436;14.138;2022-08-11T07:57:58;7.23;;;4.00;;
4222;SDS011;2125;51.436;14.138;2022-08-11T08:00:43;7.10;;;3.90;;
4222;SDS011;2125;51.436;14.138;2022-08-11T08:03:30;7.47;;;3.27;;
4222;SDS011;2125;51.436;14.138;2022-08-11T08:06:16;4.23;;;3.40;;
4222;SDS011;2125;51.436;14.138;2022-08-11T08:09:00;6.17;;;3.57;;
4222;SDS011;2125;51.436;14.138;2022-08-11T08:11:48;4.70;;;3.87;;
4222;SDS011;2125;51.436;14.138;2022-08-11T08:14:33;8.53;;;3.60;;
4222;SDS011;2125;51.436;14.138;2022-08-11T08:17:18;5.10;;;4.10;;
4222;SDS011;2125;51.436;14.138;2022-08-11T08:20:04;12.37;;;3.87;;
4222;SDS011;2125;51.436;14.138;2022-08-11T08:22:34;6.40;;;3.30;;
4222;SDS011;2125;51.436;14.138;2022-08-11T08:25:01;4.87;;;3.00;;
4222;SDS011;2125;51.436;14.138;2022-08-11T08:27:30;5.80;;;3.70;;
4222;SDS011;2125;51.436;14.138;2022-08-11T08:29:57;13.13;;;4.00;;
4222;SDS011;2125;51.436;14.138;2022-08-11T08:32:42;8.83;;;3.43;;
4222;SDS011;2125;51.436;14.138;2022-08-11T08:35:09;5.33;;;3.80;;
4222;SDS011;2125;51.436;14.138;2022-08-11T08:37:36;7.07;;;3.77;;
4222;SDS011;2125;51.436;14.138;2022-08-11T08:40:05;4.37;;;3.70;;
4222;SDS011;2125;51.436;14.138;2022-08-11T08:42:36;9.37;;;4.03;;
4222;SDS011;2125;51.436;14.138;2022-08-11T08:45:07;6.53;;;4.33;;
4222;SDS011;2125;51.436;14.138;2022-08-11T08:47:36;8.27;;;4.37;;
4222;SDS011;2125;51.436;14.138;2022-08-11T08:50:07;6.33;;;4.20;;
4222;SDS011;2125;51.436;14.138;2022-08-11T08:52:37;7.13;;;3.80;;
4222;SDS011;2125;51.436;14.138;2022-08-11T08:55:08;10.57;;;3.77;;
4222;SDS011;2125;51.436;14.138;2022-08-11T08:57:42;10.27;;;4.10;;
4222;SDS011;2125;51.436;14.138;2022-08-11T09:00:12;17.83;;;4.13;;
4222;SDS011;2125;51.436;14.138;2022-08-11T09:02:41;15.47;;;3.90;;
4222;SDS011;2125;51.436;14.138;2022-08-11T09:05:08;10.63;;;3.43;;
4222;SDS011;2125;51.436;14.138;2022-08-11T09:07:36;15.20;;;3.73;;
4222;SDS011;2125;51.436;14.138;2022-08-11T09:10:04;33.37;;;5.23;;
4222;SDS011;2125;51.436;14.138;2022-08-11T09:12:32;12.40;;;3.77;;
4222;SDS011;2125;51.436;14.138;2022-08-11T09:15:02;5.97;;;3.40;;
4222;SDS011;2125;51.436;14.138;2022-08-11T09:17:30;9.90;;;3.77;;
4222;SDS011;2125;51.436;14.138;2022-08-11T09:20:02;5.00;;;3.20;;
4222;SDS011;2125;51.436;14.138;2022-08-11T09:22:33;16.10;;;4.10;;
4222;SDS011;2125;51.436;14.138;2022-08-11T09:25:18;7.40;;;3.33;;
4222;SDS011;2125;51.436;14.138;2022-08-11T09:28:04;5.70;;;2.97;;
4222;SDS011;2125;51.436;14.138;2022-08-11T09:30:36;13.03;;;3.30;;
4222;SDS011;2125;51.436;14.138;2022-08-11T09:33:05;4.90;;;2.70;;
4222;SDS011;2125;51.436;14.138;2022-08-11T09:35:33;11.43;;;4.23;;
4222;SDS011;2125;51.436;14.138;2022-08-11T09:38:03;6.20;;;2.90;;
4222;SDS011;2125;51.436;14.138;2022-08-11T09:40:49;11.13;;;3.23;;
4222;SDS011;2125;51.436;14.138;2022-08-11T09:43:17;6.50;;;3.00;;
4222;SDS011;2125;51.436;14.138;2022-08-11T09:46:03;4.37;;;2.93;;
4222;SDS011;2125;51.436;14.138;2022-08-11T09:48:34;38.67;;;4.60;;
4222;SDS011;2125;51.436;14.138;2022-08-11T09:51:02;17.47;;;3.00;;
4222;SDS011;2125;51.436;14.138;2022-08-11T09:53:31;9.70;;;2.80;;
4222;SDS011;2125;51.436;14.138;2022-08-11T09:56:00;5.07;;;2.70;;
4222;SDS011;2125;51.436;14.138;2022-08-11T09:58:48;8.10;;;3.07;;
4222;SDS011;2125;51.436;14.138;2022-08-11T10:01:16;11.70;;;3.20;;
4222;SDS011;2125;51.436;14.138;2022-08-11T10:03:52;14.50;;;3.37;;
4222;SDS011;2125;51.436;14.138;2022-08-11T10:06:23;15.07;;;3.20;;
4222;SDS011;2125;51.436;14.138;2022-08-11T10:09:09;5.43;;;2.40;;
4222;SDS011;2125;51.436;14.138;2022-08-11T10:11:36;7.03;;;2.47;;
4222;SDS011;2125;51.436;14.138;2022-08-11T10:14:05;11.47;;;2.60;;
4222;SDS011;2125;51.436;14.138;2022-08-11T10:16:52;8.43;;;1.80;;
4222;SDS011;2125;51.436;14.138;2022-08-11T10:19:19;7.40;;;2.23;;
4222;SDS011;2125;51.436;14.138;2022-08-11T10:21:47;5.23;;;2.00;;
4222;SDS011;2125;51.436;14.138;2022-08-11T10:24:37;7.07;;;2.20;;
4222;SDS011;2125;51.436;14.138;2022-08-11T10:27:23;5.37;;;1.90;;
4222;SDS011;2125;51.436;14.138;2022-08-11T10:29:51;8.80;;;1.80;;
4222;SDS011;2125;51.436;14.138;2022-08-11T10:32:38;8.83;;;2.50;;
4222;SDS011;2125;51.436;14.138;2022-08-11T10:35:23;11.47;;;2.50;;
4222;SDS011;2125;51.436;14.138;2022-08-11T10:37:51;2.90;;;1.90;;
4222;SDS011;2125;51.436;14.138;2022-08-11T10:40:19;5.53;;;1.90;;
4222;SDS011;2125;51.436;14.138;2022-08-11T10:42:48;8.63;;;2.07;;
4222;SDS011;2125;51.436;14.138;2022-08-11T10:45:31;12.77;;;2.27;;
4222;SDS011;2125;51.436;14.138;2022-08-11T10:48:19;6.80;;;1.97;;
4222;SDS011;2125;51.436;14.138;2022-08-11T10:50:47;12.97;;;2.50;;
4222;SDS011;2125;51.436;14.138;2022-08-11T10:53:32;3.87;;;2.20;;
4222;SDS011;2125;51.436;14.138;2022-08-11T10:56:17;2.57;;;2.00;;
4222;SDS011;2125;51.436;14.138;2022-08-11T10:59:02;2.47;;;1.60;;
4222;SDS011;2125;51.436;14.138;2022-08-11T11:01:33;3.97;;;1.90;;
4222;SDS011;2125;51.436;14.138;2022-08-11T11:04:05;5.10;;;2.00;;
4222;SDS011;2125;51.436;14.138;2022-08-11T11:06:37;6.43;;;1.73;;
4222;SDS011;2125;51.436;14.138;2022-08-11T11:09:12;5.13;;;1.93;;
4222;SDS011;2125;51.436;14.138;2022-08-11T11:11:42;5.63;;;1.70;;
4222;SDS011;2125;51.436;14.138;2022-08-11T11:14:31;17.33;;;1.80;;
4222;SDS011;2125;51.436;14.138;2022-08-11T11:17:19;9.47;;;1.83;;
4222;SDS011;2125;51.436;14.138;2022-08-11T11:20:11;3.03;;;1.67;;
4222;SDS011;2125;51.436;14.138;2022-08-11T11:22:42;2.10;;;1.40;;
4222;SDS011;2125;51.436;14.138;2022-08-11T11:25:24;4.77;;;1.50;;
4222;SDS011;2125;51.436;14.138;2022-08-11T11:28:09;5.17;;;1.60;;
4222;SDS011;2125;51.436;14.138;2022-08-11T11:31:01;2.40;;;1.40;;
4222;SDS011;2125;51.436;14.138;2022-08-11T11:33:40;5.73;;;1.40;;
4222;SDS011;2125;51.436;14.138;2022-08-11T11:36:21;3.97;;;1.60;;
4222;SDS011;2125;51.436;14.138;2022-08-11T11:38:53;4.80;;;1.80;;
4222;SDS011;2125;51.436;14.138;2022-08-11T11:41:22;7.63;;;1.83;;
4222;SDS011;2125;51.436;14.138;2022-08-11T11:43:53;5.70;;;1.80;;
4222;SDS011;2125;51.436;14.138;2022-08-11T11:46:21;5.23;;;1.77;;
4222;SDS011;2125;51.436;14.138;2022-08-11T11:48:49;2.20;;;1.80;;
4222;SDS011;2125;51.436;14.138;2022-08-11T11:51:17;4.33;;;2.07;;
4222;SDS011;2125;51.436;14.138;2022-08-11T11:53:46;6.17;;;2.07;;
4222;SDS011;2125;51.436;14.138;2022-08-11T11:56:13;27.10;;;3.50;;
4222;SDS011;2125;51.436;14.138;2022-08-11T11:58:41;10.00;;;2.50;;
4222;SDS011;2125;51.436;14.138;2022-08-11T12:01:26;4.43;;;2.27;;
4222;SDS011;2125;51.436;14.138;2022-08-11T12:03:54;5.97;;;1.97;;
4222;SDS011;2125;51.436;14.138;2022-08-11T12:06:22;6.63;;;1.93;;
4222;SDS011;2125;51.436;14.138;2022-08-11T12:08:53;16.87;;;2.23;;
4222;SDS011;2125;51.436;14.138;2022-08-11T12:11:23;6.60;;;1.90;;
4222;SDS011;2125;51.436;14.138;2022-08-11T12:14:09;17.80;;;2.60;;
4222;SDS011;2125;51.436;14.138;2022-08-11T12:16:38;5.40;;;2.30;;
4222;SDS011;2125;51.436;14.138;2022-08-11T12:19:06;7.63;;;2.70;;
4222;SDS011;2125;51.436;14.138;2022-08-11T12:21:35;3.30;;;1.83;;
4222;SDS011;2125;51.436;14.138;2022-08-11T12:24:24;4.20;;;2.20;;
4222;SDS011;2125;51.436;14.138;2022-08-11T12:27:10;14.87;;;2.60;;
4222;SDS011;2125;51.436;14.138;2022-08-11T12:29:48;9.13;;;2.20;;
4222;SDS011;2125;51.436;14.138;2022-08-11T12:32:17;9.60;;;2.30;;
4222;SDS011;2125;51.436;14.138;2022-08-11T12:34:45;6.93;;;2.43;;
4222;SDS011;2125;51.436;14.138;2022-08-11T12:37:12;17.90;;;2.50;;
4222;SDS011;2125;51.436;14.138;2022-08-11T12:39:42;17.37;;;2.90;;
4222;SDS011;2125;51.436;14.138;2022-08-11T12:42:29;19.87;;;3.00;;
4222;SDS011;2125;51.436;14.138;2022-08-11T12:45:16;13.57;;;2.63;;
4222;SDS011;2125;51.436;14.138;2022-08-11T12:47:55;3.40;;;1.80;;
4222;SDS011;2125;51.436;14.138;2022-08-11T12:50:45;4.53;;;2.03;;
4222;SDS011;2125;51.436;14.138;2022-08-11T12:53:34;3.83;;;2.50;;
4222;SDS011;2125;51.436;14.138;2022-08-11T12:56:06;6.73;;;2.50;;
4222;SDS011;2125;51.436;14.138;2022-08-11T12:58:51;4.57;;;2.30;;
4222;SDS011;2125;51.436;14.138;2022-08-11T13:01:33;6.80;;;2.30;;
4222;SDS011;2125;51.436;14.138;2022-08-11T13:04:17;10.70;;;2.60;;
4222;SDS011;2125;51.436;14.138;2022-08-11T13:07:02;11.43;;;2.30;;
4222;SDS011;2125;51.436;14.138;2022-08-11T13:09:29;3.47;;;2.10;;
4222;SDS011;2125;51.436;14.138;2022-08-11T13:11:57;6.60;;;2.20;;
4222;SDS011;2125;51.436;14.138;2022-08-11T13:14:45;16.30;;;2.63;;
4222;SDS011;2125;51.436;14.138;2022-08-11T13:17:12;20.83;;;2.60;;
4222;SDS011;2125;51.436;14.138;2022-08-11T13:19:48;18.90;;;2.50;;
4222;SDS011;2125;51.436;14.138;2022-08-11T13:22:16;7.67;;;2.23;;
4222;SDS011;2125;51.436;14.138;2022-08-11T13:24:43;4.60;;;2.40;;
4222;SDS011;2125;51.436;14.138;2022-08-11T13:27:14;5.43;;;2.17;;
4222;SDS011;2125;51.436;14.138;2022-08-11T13:29:43;10.37;;;2.43;;
4222;SDS011;2125;51.436;14.138;2022-08-11T13:32:11;4.40;;;2.60;;
4222;SDS011;2125;51.436;14.138;2022-08-11T13:34:38;4.13;;;2.10;;
4222;SDS011;2125;51.436;14.138;2022-08-11T13:37:07;3.83;;;2.03;;
4222;SDS011;2125;51.436;14.138;2022-08-11T13:39:36;5.90;;;1.90;;
4222;SDS011;2125;51.436;14.138;2022-08-11T13:42:03;14.03;;;2.80;;
4222;SDS011;2125;51.436;14.138;2022-08-11T13:44:35;6.80;;;2.00;;
4222;SDS011;2125;51.436;14.138;2022-08-11T13:47:04;8.30;;;2.13;;
4222;SDS011;2125;51.436;14.138;2022-08-11T13:49:36;2.97;;;2.10;;
4222;SDS011;2125;51.436;14.138;2022-08-11T13:52:05;2.70;;;2.10;;
4222;SDS011;2125;51.436;14.138;2022-08-11T13:54:36;22.07;;;2.57;;
4222;SDS011;2125;51.436;14.138;2022-08-11T13:57:08;4.30;;;2.23;;
4222;SDS011;2125;51.436;14.138;2022-08-11T13:59:40;6.17;;;1.80;;
4222;SDS011;2125;51.436;14.138;2022-08-11T14:02:11;3.10;;;1.90;;
4222;SDS011;2125;51.436;14.138;2022-08-11T14:04:44;2.83;;;1.73;;
4222;SDS011;2125;51.436;14.138;2022-08-11T14:07:16;21.87;;;2.70;;
4222;SDS011;2125;51.436;14.138;2022-08-11T14:09:52;4.57;;;2.10;;
4222;SDS011;2125;51.436;14.138;2022-08-11T14:12:22;2.93;;;2.13;;
4222;SDS011;2125;51.436;14.138;2022-08-11T14:15:11;4.57;;;2.20;;
4222;SDS011;2125;51.436;14.138;2022-08-11T14:17:43;3.00;;;2.00;;
4222;SDS011;2125;51.436;14.138;2022-08-11T14:20:14;4.27;;;1.80;;
4222;SDS011;2125;51.436;14.138;2022-08-11T14:22:51;2.70;;;2.03;;
4222;SDS011;2125;51.436;14.138;2022-08-11T14:25:18;12.47;;;2.50;;
4222;SDS011;2125;51.436;14.138;2022-08-11T14:27:45;10.20;;;2.77;;
4222;SDS011;2125;51.436;14.138;2022-08-11T14:30:16;2.50;;;2.10;;
4222;SDS011;2125;51.436;14.138;2022-08-11T14:33:00;2.50;;;1.80;;
4222;SDS011;2125;51.436;14.138;2022-08-11T14:35:28;4.57;;;2.30;;
4222;SDS011;2125;51.436;14.138;2022-08-11T14:37:55;13.00;;;3.33;;
4222;SDS011;2125;51.436;14.138;2022-08-11T14:40:23;10.70;;;2.63;;
4222;SDS011;2125;51.436;14.138;2022-08-11T14:43:10;8.13;;;2.70;;
4222;SDS011;2125;51.436;14.138;2022-08-11T14:45:56;2.37;;;1.87;;
4222;SDS011;2125;51.436;14.138;2022-08-11T14:48:40;8.20;;;2.70;;
4222;SDS011;2125;51.436;14.138;2022-08-11T14:51:09;5.53;;;2.40;;
4222;SDS011;2125;51.436;14.138;2022-08-11T14:53:36;6.37;;;2.50;;
4222;SDS011;2125;51.436;14.138;2022-08-11T14:56:03;5.57;;;2.87;;
4222;SDS011;2125;51.436;14.138;2022-08-11T14:58:57;16.20;;;3.10;;
4222;SDS011;2125;51.436;14.138;2022-08-11T15:01:26;6.47;;;2.50;;
4222;SDS011;2125;51.436;14.138;2022-08-11T15:04:19;4.67;;;2.80;;
4222;SDS011;2125;51.436;14.138;2022-08-11T15:06:46;4.70;;;2.40;;
4222;SDS011;2125;51.436;14.138;2022-08-11T15:09:13;24.07;;;3.97;;
4222;SDS011;2125;51.436;14.138;2022-08-11T15:11:43;16.37;;;3.17;;
4222;SDS011;2125;51.436;14.138;2022-08-11T15:14:27;11.90;;;3.03;;
4222;SDS011;2125;51.436;14.138;2022-08-11T15:17:14;4.47;;;2.60;;
4222;SDS011;2125;51.436;14.138;2022-08-11T15:19:42;7.70;;;2.97;;
4222;SDS011;2125;51.436;14.138;2022-08-11T15:22:29;11.30;;;2.60;;
4222;SDS011;2125;51.436;14.138;2022-08-11T15:25:14;11.63;;;2.50;;
4222;SDS011;2125;51.436;14.138;2022-08-11T15:27:41;12.07;;;2.90;;
4222;SDS011;2125;51.436;14.138;2022-08-11T15:30:28;11.03;;;2.87;;
4222;SDS011;2125;51.436;14.138;2022-08-11T15:33:15;6.40;;;2.07;;
4222;SDS011;2125;51.436;14.138;2022-08-11T15:36:03;10.13;;;2.70;;
4222;SDS011;2125;51.436;14.138;2022-08-11T15:38:53;15.30;;;3.00;;
4222;SDS011;2125;51.436;14.138;2022-08-11T15:41:23;7.90;;;2.90;;
4222;SDS011;2125;51.436;14.138;2022-08-11T15:44:12;4.60;;;2.40;;
4222;SDS011;2125;51.436;14.138;2022-08-11T15:46:58;5.23;;;2.00;;
4222;SDS011;2125;51.436;14.138;2022-08-11T15:49:31;4.17;;;2.50;;
4222;SDS011;2125;51.436;14.138;2022-08-11T15:52:05;8.97;;;2.37;;
4222;SDS011;2125;51.436;14.138;2022-08-11T15:54:34;10.50;;;2.60;;
4222;SDS011;2125;51.436;14.138;2022-08-11T15:57:05;6.97;;;2.00;;
4222;SDS011;2125;51.436;14.138;2022-08-11T15:59:33;3.53;;;1.80;;
4222;SDS011;2125;51.436;14.138;2022-08-11T16:02:21;2.10;;;1.77;;
4222;SDS011;2125;51.436;14.138;2022-08-11T16:05:10;5.57;;;1.90;;
4222;SDS011;2125;51.436;14.138;2022-08-11T16:07:41;12.63;;;2.30;;
4222;SDS011;2125;51.436;14.138;2022-08-11T16:10:13;5.83;;;1.90;;
4222;SDS011;2125;51.436;14.138;2022-08-11T16:12:46;4.87;;;1.83;;
4222;SDS011;2125;51.436;14.138;2022-08-11T16:15:46;4.30;;;2.00;;
4222;SDS011;2125;51.436;14.138;2022-08-11T16:18:33;2.03;;;1.80;;
4222;SDS011;2125;51.436;14.138;2022-08-11T16:21:09;12.00;;;1.83;;
4222;SDS011;2125;51.436;14.138;2022-08-11T16:23:41;9.43;;;2.10;;
4222;SDS011;2125;51.436;14.138;2022-08-11T16:26:09;3.60;;;2.00;;
4222;SDS011;2125;51.436;14.138;2022-08-11T16:28:38;9.13;;;2.13;;
4222;SDS011;2125;51.436;14.138;2022-08-11T16:31:08;2.70;;;1.60;;
4222;SDS011;2125;51.436;14.138;2022-08-11T16:33:36;4.40;;;1.93;;
4222;SDS011;2125;51.436;14.138;2022-08-11T16:36:05;5.60;;;1.90;;
4222;SDS011;2125;51.436;14.138;2022-08-11T16:38:52;2.40;;;1.80;;